sensor_id;sensor_type;location;lat;lon;timestamp;pressure;altitude;pressure_sealevel;temperature;humidity
19096;BME280;9680;52.520;13.332;2023-05-23T00:01:09;100912.50;;;20.23;38.41
19096;BME280;9680;52.520;13.332;2023-05-23T00:03:36;100905.53;;;20.22;38.44
19096;BME280;9680;52.520;13.332;2023-05-23T00:06:05;100908.06;;;20.24;38.43
19096;BME280;9680;52.520;13.332;2023-05-23T00:08:32;100905.44;;;20.24;38.42
19096;BME280;9680;52.520;13.332;2023-05-23T00:11:00;100896.78;;;20.22;38.43
19096;BME280;9680;52.520;13.332;2023-05-23T00:13:27;100903.94;;;20.20;38.46
19096;BME280;9680;52.520;13.332;2023-05-23T00:15:54;100900.81;;;20.15;38.69
19096;BME280;9680;52.520;13.332;2023-05-23T00:18:20;100901.91;;;20.12;38.84
19096;BME280;9680;52.520;13.332;2023-05-23T00:20:49;100899.50;;;20.09;38.85
19096;BME280;9680;52.520;13.332;2023-05-23T00:23:16;100886.50;;;20.06;38.93
19096;BME280;9680;52.520;13.332;2023-05-23T00:25:45;100901.66;;;20.04;38.96
19096;BME280;9680;52.520;13.332;2023-05-23T00:28:18;100885.28;;;19.99;38.85
19096;BME280;9680;52.520;13.332;2023-05-23T00:30:45;100892.59;;;19.95;39.06
19096;BME280;9680;52.520;13.332;2023-05-23T00:33:13;100885.03;;;19.90;39.31
19096;BME280;9680;52.520;13.332;2023-05-23T00:35:41;100884.38;;;19.87;39.05
19096;BME280;9680;52.520;13.332;2023-05-23T00:38:08;100892.41;;;19.85;39.32
19096;BME280;9680;52.520;13.332;2023-05-23T00:40:35;100877.63;;;19.83;39.44
19096;BME280;9680;52.520;13.332;2023-05-23T00:43:02;100884.13;;;19.78;39.22
19096;BME280;9680;52.520;13.332;2023-05-23T00:45:30;100883.38;;;19.76;39.38
19096;BME280;9680;52.520;13.332;2023-05-23T00:47:58;100887.94;;;19.74;39.55
19096;BME280;9680;52.520;13.332;2023-05-23T00:50:27;100883.00;;;19.70;39.76
19096;BME280;9680;52.520;13.332;2023-05-23T00:52:55;100876.38;;;19.64;39.65
19096;BME280;9680;52.520;13.332;2023-05-23T00:55:22;100860.84;;;19.59;39.81
19096;BME280;9680;52.520;13.332;2023-05-23T00:57:50;100869.09;;;19.55;39.85
19096;BME280;9680;52.520;13.332;2023-05-23T01:00:20;100860.59;;;19.51;39.95
19096;BME280;9680;52.520;13.332;2023-05-23T01:02:51;100865.38;;;19.46;40.16
19096;BME280;9680;52.520;13.332;2023-05-23T01:05:19;100861.88;;;19.45;40.45
19096;BME280;9680;52.520;13.332;2023-05-23T01:07:47;100859.34;;;19.44;40.33
19096;BME280;9680;52.520;13.332;2023-05-23T01:10:16;100854.91;;;19.44;40.55
19096;BME280;9680;52.520;13.332;2023-05-23T01:12:50;100857.53;;;19.44;40.27
19096;BME280;9680;52.520;13.332;2023-05-23T01:15:22;100860.09;;;19.46;40.54
19096;BME280;9680;52.520;13.332;2023-05-23T01:17:57;100851.22;;;19.47;40.44
19096;BME280;9680;52.520;13.332;2023-05-23T01:20:29;100852.75;;;19.49;40.41
19096;BME280;9680;52.520;13.332;2023-05-23T01:23:12;100850.97;;;19.50;40.60
19096;BME280;9680;52.520;13.332;2023-05-23T01:25:51;100851.56;;;19.54;40.50
19096;BME280;9680;52.520;13.332;2023-05-23T01:28:27;100848.72;;;19.57;40.43
19096;BME280;9680;52.520;13.332;2023-05-23T01:30:57;100850.50;;;19.56;40.59
19096;BME280;9680;52.520;13.332;2023-05-23T01:33:24;100847.88;;;19.56;40.46
19096;BME280;9680;52.520;13.332;2023-05-23T01:35:51;100853.25;;;19.55;40.39
19096;BME280;9680;52.520;13.332;2023-05-23T01:38:21;100847.16;;;19.54;40.65
19096;BME280;9680;52.520;13.332;2023-05-23T01:40:48;100844.50;;;19.54;40.39
19096;BME280;9680;52.520;13.332;2023-05-23T01:43:15;100846.09;;;19.57;40.52
19096;BME280;9680;52.520;13.332;2023-05-23T01:45:43;100840.81;;;19.57;40.51
19096;BME280;9680;52.520;13.332;2023-05-23T01:48:11;100844.19;;;19.59;40.57
19096;BME280;9680;52.520;13.332;2023-05-23T01:50:39;100844.19;;;19.59;40.54
19096;BME280;9680;52.520;13.332;2023-05-23T01:53:08;100840.56;;;19.60;40.67
19096;BME280;9680;52.520;13.332;2023-05-23T01:55:35;100832.88;;;19.57;40.42
19096;BME280;9680;52.520;13.332;2023-05-23T01:58:03;100836.59;;;19.54;40.37
19096;BME280;9680;52.520;13.332;2023-05-23T02:00:30;100826.00;;;19.54;40.74
19096;BME280;9680;52.520;13.332;2023-05-23T02:02:58;100831.53;;;19.51;40.77
19096;BME280;9680;52.520;13.332;2023-05-23T02:05:25;100837.78;;;19.50;40.68
19096;BME280;9680;52.520;13.332;2023-05-23T02:07:52;100843.16;;;19.48;40.92
19096;BME280;9680;52.520;13.332;2023-05-23T02:10:19;100842.91;;;19.52;40.79
19096;BME280;9680;52.520;13.332;2023-05-23T02:12:45;100845.34;;;19.55;40.72
19096;BME280;9680;52.520;13.332;2023-05-23T02:15:12;100843.56;;;19.55;40.93
19096;BME280;9680;52.520;13.332;2023-05-23T02:17:39;100847.88;;;19.56;40.70
19096;BME280;9680;52.520;13.332;2023-05-23T02:20:09;100841.88;;;19.54;40.48
19096;BME280;9680;52.520;13.332;2023-05-23T02:22:37;100852.34;;;19.56;40.94
19096;BME280;9680;52.520;13.332;2023-05-23T02:25:05;100845.56;;;19.52;41.15
19096;BME280;9680;52.520;13.332;2023-05-23T02:27:32;100846.75;;;19.47;41.20
19096;BME280;9680;52.520;13.332;2023-05-23T02:29:58;100846.88;;;19.46;41.44
19096;BME280;9680;52.520;13.332;2023-05-23T02:32:27;100845.06;;;19.46;41.25
19096;BME280;9680;52.520;13.332;2023-05-23T02:34:55;100840.50;;;19.48;41.16
19096;BME280;9680;52.520;13.332;2023-05-23T02:37:24;100838.81;;;19.47;41.27
19096;BME280;9680;52.520;13.332;2023-05-23T02:39:52;100834.41;;;19.48;41.08
19096;BME280;9680;52.520;13.332;2023-05-23T02:42:20;100829.22;;;19.46;40.93
19096;BME280;9680;52.520;13.332;2023-05-23T02:44:47;100833.78;;;19.44;41.22
19096;BME280;9680;52.520;13.332;2023-05-23T02:47:14;100835.09;;;19.39;41.31
19096;BME280;9680;52.520;13.332;2023-05-23T02:49:41;100835.19;;;19.37;41.33
19096;BME280;9680;52.520;13.332;2023-05-23T02:52:07;100834.47;;;19.35;41.69
19096;BME280;9680;52.520;13.332;2023-05-23T02:54:36;100832.91;;;19.32;41.43
19096;BME280;9680;52.520;13.332;2023-05-23T02:57:03;100834.47;;;19.35;41.41
19096;BME280;9680;52.520;13.332;2023-05-23T02:59:34;100829.91;;;19.37;41.66
19096;BME280;9680;52.520;13.332;2023-05-23T03:02:00;100831.50;;;19.40;41.60
19096;BME280;9680;52.520;13.332;2023-05-23T03:04:27;100834.22;;;19.38;41.99
19096;BME280;9680;52.520;13.332;2023-05-23T03:06:54;100834.22;;;19.38;41.99
19096;BME280;9680;52.520;13.332;2023-05-23T03:09:21;100821.66;;;19.42;41.72
19096;BME280;9680;52.520;13.332;2023-05-23T03:11:49;100830.16;;;19.45;41.55
19096;BME280;9680;52.520;13.332;2023-05-23T03:14:16;100815.28;;;19.44;41.63
19096;BME280;9680;52.520;13.332;2023-05-23T03:16:43;100825.84;;;19.44;42.04
19096;BME280;9680;52.520;13.332;2023-05-23T03:19:09;100826.06;;;19.41;41.97
19096;BME280;9680;52.520;13.332;2023-05-23T03:21:36;100820.91;;;19.40;42.23
19096;BME280;9680;52.520;13.332;2023-05-23T03:24:03;100816.69;;;19.37;42.42
19096;BME280;9680;52.520;13.332;2023-05-23T03:26:30;100818.38;;;19.38;42.34
19096;BME280;9680;52.520;13.332;2023-05-23T03:28:58;100813.00;;;19.40;42.10
19096;BME280;9680;52.520;13.332;2023-05-23T03:31:25;100813.00;;;19.40;42.27
19096;BME280;9680;52.520;13.332;2023-05-23T03:33:52;100823.06;;;19.34;42.15
19096;BME280;9680;52.520;13.332;2023-05-23T03:36:19;100821.97;;;19.37;42.29
19096;BME280;9680;52.520;13.332;2023-05-23T03:38:46;100819.56;;;19.34;42.50
19096;BME280;9680;52.520;13.332;2023-05-23T03:41:13;100810.81;;;19.33;42.43
19096;BME280;9680;52.520;13.332;2023-05-23T03:43:40;100807.31;;;19.33;42.28
19096;BME280;9680;52.520;13.332;2023-05-23T03:46:08;100814.75;;;19.28;42.21
19096;BME280;9680;52.520;13.332;2023-05-23T03:48:35;100821.19;;;19.24;42.66
19096;BME280;9680;52.520;13.332;2023-05-23T03:51:03;100808.97;;;19.23;42.46
19096;BME280;9680;52.520;13.332;2023-05-23T03:53:30;100807.28;;;19.21;42.37
19096;BME280;9680;52.520;13.332;2023-05-23T03:55:56;100804.97;;;19.17;42.46
19096;BME280;9680;52.520;13.332;2023-05-23T03:58:24;100807.38;;;19.20;42.61
19096;BME280;9680;52.520;13.332;2023-05-23T04:00:55;100797.75;;;19.19;42.82
19096;BME280;9680;52.520;13.332;2023-05-23T04:03:23;100804.72;;;19.20;42.89
19096;BME280;9680;52.520;13.332;2023-05-23T04:05:52;100807.50;;;19.18;42.78
19096;BME280;9680;52.520;13.332;2023-05-23T04:08:19;100805.41;;;19.11;43.39
19096;BME280;9680;52.520;13.332;2023-05-23T04:10:48;100805.09;;;19.15;42.96
19096;BME280;9680;52.520;13.332;2023-05-23T04:13:15;100803.91;;;19.19;43.02
19096;BME280;9680;52.520;13.332;2023-05-23T04:15:42;100817.84;;;19.21;43.11
19096;BME280;9680;52.520;13.332;2023-05-23T04:18:10;100816.66;;;19.26;43.16
19096;BME280;9680;52.520;13.332;2023-05-23T04:20:38;100814.88;;;19.26;43.88
19096;BME280;9680;52.520;13.332;2023-05-23T04:23:05;100817.75;;;19.23;44.13
19096;BME280;9680;52.520;13.332;2023-05-23T04:25:35;100818.56;;;19.24;44.30
19096;BME280;9680;52.520;13.332;2023-05-23T04:28:30;100817.59;;;19.25;44.30
19096;BME280;9680;52.520;13.332;2023-05-23T04:30:57;100809.34;;;19.29;44.21
19096;BME280;9680;52.520;13.332;2023-05-23T04:33:26;100805.41;;;19.35;44.11
19096;BME280;9680;52.520;13.332;2023-05-23T04:35:56;100804.69;;;19.33;44.07
19096;BME280;9680;52.520;13.332;2023-05-23T04:38:23;100811.88;;;19.31;44.06
19096;BME280;9680;52.520;13.332;2023-05-23T04:40:50;100812.97;;;19.28;43.96
19096;BME280;9680;52.520;13.332;2023-05-23T04:43:36;100814.75;;;19.28;44.14
19096;BME280;9680;52.520;13.332;2023-05-23T04:46:21;100812.09;;;19.28;44.38
19096;BME280;9680;52.520;13.332;2023-05-23T04:49:03;100812.00;;;19.29;44.08
19096;BME280;9680;52.520;13.332;2023-05-23T04:51:32;100810.09;;;19.31;44.15
19096;BME280;9680;52.520;13.332;2023-05-23T04:54:09;100801.53;;;19.28;43.99
19096;BME280;9680;52.520;13.332;2023-05-23T04:56:36;100803.69;;;19.23;44.05
19096;BME280;9680;52.520;13.332;2023-05-23T04:59:03;100801.03;;;19.23;44.00
19096;BME280;9680;52.520;13.332;2023-05-23T05:01:33;100796.81;;;19.20;44.23
19096;BME280;9680;52.520;13.332;2023-05-23T05:04:00;100801.13;;;19.21;44.35
19096;BME280;9680;52.520;13.332;2023-05-23T05:06:28;100799.56;;;19.18;44.61
19096;BME280;9680;52.520;13.332;2023-05-23T05:08:57;100808.47;;;19.17;44.64
19096;BME280;9680;52.520;13.332;2023-05-23T05:11:24;100813.84;;;19.16;44.84
19096;BME280;9680;52.520;13.332;2023-05-23T05:13:53;100813.00;;;19.15;44.99
19096;BME280;9680;52.520;13.332;2023-05-23T05:16:20;100814.91;;;19.13;45.09
19096;BME280;9680;52.520;13.332;2023-05-23T05:18:48;100808.91;;;19.11;45.37
19096;BME280;9680;52.520;13.332;2023-05-23T05:21:17;100814.91;;;19.13;45.00
19096;BME280;9680;52.520;13.332;2023-05-23T05:23:44;100814.06;;;19.13;44.89
19096;BME280;9680;52.520;13.332;2023-05-23T05:26:14;100820.41;;;19.10;45.06
19096;BME280;9680;52.520;13.332;2023-05-23T05:28:41;100817.78;;;19.10;45.17
19096;BME280;9680;52.520;13.332;2023-05-23T05:31:08;100815.00;;;19.12;44.62
19096;BME280;9680;52.520;13.332;2023-05-23T05:33:39;100819.69;;;19.08;44.59
19096;BME280;9680;52.520;13.332;2023-05-23T05:36:12;100821.69;;;19.04;44.64
19096;BME280;9680;52.520;13.332;2023-05-23T05:38:40;100828.06;;;19.02;44.75
19096;BME280;9680;52.520;13.332;2023-05-23T05:41:08;100831.34;;;18.92;45.57
19096;BME280;9680;52.520;13.332;2023-05-23T05:43:43;100828.72;;;18.80;46.19
19096;BME280;9680;52.520;13.332;2023-05-23T05:46:10;100826.53;;;18.73;46.39
19096;BME280;9680;52.520;13.332;2023-05-23T05:48:37;100826.00;;;18.68;46.95
19096;BME280;9680;52.520;13.332;2023-05-23T05:51:09;100826.00;;;18.68;46.97
19096;BME280;9680;52.520;13.332;2023-05-23T05:53:38;100819.38;;;18.62;46.96
19096;BME280;9680;52.520;13.332;2023-05-23T05:56:05;100815.25;;;18.58;47.15
19096;BME280;9680;52.520;13.332;2023-05-23T05:58:36;100810.94;;;18.57;46.83
19096;BME280;9680;52.520;13.332;2023-05-23T06:01:08;100811.56;;;18.61;47.08
19096;BME280;9680;52.520;13.332;2023-05-23T06:03:35;100816.72;;;18.62;47.08
19096;BME280;9680;52.520;13.332;2023-05-23T06:06:03;100810.06;;;18.70;47.22
19096;BME280;9680;52.520;13.332;2023-05-23T06:08:30;100807.84;;;18.76;47.48
19096;BME280;9680;52.520;13.332;2023-05-23T06:10:57;100804.03;;;18.81;47.21
19096;BME280;9680;52.520;13.332;2023-05-23T06:13:25;100805.25;;;18.88;47.26
19096;BME280;9680;52.520;13.332;2023-05-23T06:15:53;100796.81;;;18.96;47.24
19096;BME280;9680;52.520;13.332;2023-05-23T06:18:21;100802.41;;;19.04;46.96
19096;BME280;9680;52.520;13.332;2023-05-23T06:20:49;100801.81;;;19.12;46.75
19096;BME280;9680;52.520;13.332;2023-05-23T06:23:18;100803.19;;;19.17;46.88
19096;BME280;9680;52.520;13.332;2023-05-23T06:25:46;100803.34;;;19.27;46.77
19096;BME280;9680;52.520;13.332;2023-05-23T06:28:13;100806.84;;;19.39;46.61
19096;BME280;9680;52.520;13.332;2023-05-23T06:30:40;100800.38;;;19.43;46.42
19096;BME280;9680;52.520;13.332;2023-05-23T06:33:07;100797.06;;;19.53;46.39
19096;BME280;9680;52.520;13.332;2023-05-23T06:35:35;100803.94;;;19.67;46.32
19096;BME280;9680;52.520;13.332;2023-05-23T06:38:02;100792.09;;;19.84;46.11
19096;BME280;9680;52.520;13.332;2023-05-23T06:40:29;100803.59;;;20.07;45.83
19096;BME280;9680;52.520;13.332;2023-05-23T06:42:56;100804.56;;;20.29;45.54
19096;BME280;9680;52.520;13.332;2023-05-23T06:45:52;100797.56;;;20.50;44.98
19096;BME280;9680;52.520;13.332;2023-05-23T06:48:19;100800.56;;;20.69;44.22
19096;BME280;9680;52.520;13.332;2023-05-23T06:50:49;100807.16;;;20.74;43.82
19096;BME280;9680;52.520;13.332;2023-05-23T06:53:18;100808.38;;;20.82;44.14
19096;BME280;9680;52.520;13.332;2023-05-23T06:55:46;100803.66;;;20.85;44.32
19096;BME280;9680;52.520;13.332;2023-05-23T06:58:17;100810.66;;;20.86;43.66
19096;BME280;9680;52.520;13.332;2023-05-23T07:00:45;100809.94;;;20.84;43.88
19096;BME280;9680;52.520;13.332;2023-05-23T07:03:20;100803.19;;;20.91;43.56
19096;BME280;9680;52.520;13.332;2023-05-23T07:05:49;100799.34;;;20.95;43.68
19096;BME280;9680;52.520;13.332;2023-05-23T07:08:18;100804.59;;;21.07;43.53
19096;BME280;9680;52.520;13.332;2023-05-23T07:11:06;100808.00;;;20.98;44.04
19096;BME280;9680;52.520;13.332;2023-05-23T07:13:37;100808.38;;;20.82;44.41
19096;BME280;9680;52.520;13.332;2023-05-23T07:16:05;100807.16;;;20.74;44.77
19096;BME280;9680;52.520;13.332;2023-05-23T07:18:35;100809.47;;;20.79;45.05
19096;BME280;9680;52.520;13.332;2023-05-23T07:21:03;100814.88;;;20.89;45.03
19096;BME280;9680;52.520;13.332;2023-05-23T07:23:31;100808.41;;;21.14;44.74
19096;BME280;9680;52.520;13.332;2023-05-23T07:25:58;100811.47;;;21.31;43.87
19096;BME280;9680;52.520;13.332;2023-05-23T07:28:28;100804.03;;;21.24;43.07
19096;BME280;9680;52.520;13.332;2023-05-23T07:30:55;100806.13;;;21.21;42.85
19096;BME280;9680;52.520;13.332;2023-05-23T07:33:23;100804.31;;;21.21;42.57
19096;BME280;9680;52.520;13.332;2023-05-23T07:38:59;100792.50;;;21.47;42.39
19096;BME280;9680;52.520;13.332;2023-05-23T07:41:27;100801.03;;;21.50;42.40
19096;BME280;9680;52.520;13.332;2023-05-23T07:43:53;100805.97;;;21.55;41.92
19096;BME280;9680;52.520;13.332;2023-05-23T07:46:20;100809.47;;;21.56;41.86
19096;BME280;9680;52.520;13.332;2023-05-23T07:48:47;100806.63;;;21.68;41.94
19096;BME280;9680;52.520;13.332;2023-05-23T07:51:14;100810.13;;;21.69;41.57
19096;BME280;9680;52.520;13.332;2023-05-23T07:53:45;100816.00;;;21.73;41.66
19096;BME280;9680;52.520;13.332;2023-05-23T07:56:14;100812.81;;;21.58;42.14
19096;BME280;9680;52.520;13.332;2023-05-23T07:58:42;100811.16;;;21.45;42.33
19096;BME280;9680;52.520;13.332;2023-05-23T08:01:09;100819.91;;;21.57;42.36
19096;BME280;9680;52.520;13.332;2023-05-23T08:04:05;100817.53;;;21.54;42.06
19096;BME280;9680;52.520;13.332;2023-05-23T08:06:37;100813.97;;;21.44;42.53
19096;BME280;9680;52.520;13.332;2023-05-23T08:09:07;100821.47;;;21.38;42.50
19096;BME280;9680;52.520;13.332;2023-05-23T08:11:42;100815.56;;;21.67;42.70
19096;BME280;9680;52.520;13.332;2023-05-23T08:14:10;100824.81;;;21.73;42.61
19096;BME280;9680;52.520;13.332;2023-05-23T08:16:37;100815.00;;;21.52;42.55
19096;BME280;9680;52.520;13.332;2023-05-23T08:19:13;100818.16;;;21.46;43.16
19096;BME280;9680;52.520;13.332;2023-05-23T08:21:40;100824.88;;;21.50;43.25
19096;BME280;9680;52.520;13.332;2023-05-23T08:24:07;100823.75;;;21.64;43.33
19096;BME280;9680;52.520;13.332;2023-05-23T08:26:35;100823.44;;;21.79;43.44
19096;BME280;9680;52.520;13.332;2023-05-23T08:29:05;100833.84;;;21.92;43.02
19096;BME280;9680;52.520;13.332;2023-05-23T08:31:34;100844.72;;;21.89;43.46
19096;BME280;9680;52.520;13.332;2023-05-23T08:34:01;100839.56;;;21.66;43.73
19096;BME280;9680;52.520;13.332;2023-05-23T08:36:28;100834.41;;;21.53;44.69
19096;BME280;9680;52.520;13.332;2023-05-23T08:38:56;100841.97;;;21.58;44.88
19096;BME280;9680;52.520;13.332;2023-05-23T08:41:28;100835.16;;;21.76;44.90
19096;BME280;9680;52.520;13.332;2023-05-23T08:44:01;100838.97;;;22.05;44.51
19096;BME280;9680;52.520;13.332;2023-05-23T08:46:39;100837.63;;;22.20;44.10
19096;BME280;9680;52.520;13.332;2023-05-23T08:49:10;100847.50;;;22.39;44.03
19096;BME280;9680;52.520;13.332;2023-05-23T08:51:41;100841.88;;;22.54;44.20
19096;BME280;9680;52.520;13.332;2023-05-23T08:54:14;100842.63;;;22.76;44.13
19096;BME280;9680;52.520;13.332;2023-05-23T08:56:42;100843.38;;;23.07;43.97
19096;BME280;9680;52.520;13.332;2023-05-23T08:59:10;100847.81;;;23.58;43.25
19096;BME280;9680;52.520;13.332;2023-05-23T09:01:40;100845.09;;;23.87;43.14
19096;BME280;9680;52.520;13.332;2023-05-23T09:04:11;100846.47;;;24.01;43.10
19096;BME280;9680;52.520;13.332;2023-05-23T09:06:54;100848.56;;;24.07;43.15
19096;BME280;9680;52.520;13.332;2023-05-23T09:09:23;100848.31;;;23.91;43.76
19096;BME280;9680;52.520;13.332;2023-05-23T09:11:51;100850.13;;;23.90;43.66
19096;BME280;9680;52.520;13.332;2023-05-23T09:14:19;100857.13;;;23.91;44.14
19096;BME280;9680;52.520;13.332;2023-05-23T09:16:49;100850.53;;;24.05;44.28
19096;BME280;9680;52.520;13.332;2023-05-23T09:19:21;100854.75;;;24.08;44.48
19096;BME280;9680;52.520;13.332;2023-05-23T09:21:54;100856.31;;;24.01;44.31
19096;BME280;9680;52.520;13.332;2023-05-23T09:24:32;100860.66;;;24.39;44.37
19096;BME280;9680;52.520;13.332;2023-05-23T09:27:00;100857.13;;;24.77;43.62
19096;BME280;9680;52.520;13.332;2023-05-23T09:29:27;100851.69;;;24.78;43.51
19096;BME280;9680;52.520;13.332;2023-05-23T09:32:09;100855.50;;;24.66;43.72
19096;BME280;9680;52.520;13.332;2023-05-23T09:34:39;100864.50;;;24.27;44.25
19096;BME280;9680;52.520;13.332;2023-05-23T09:37:06;100857.25;;;24.09;44.59
19096;BME280;9680;52.520;13.332;2023-05-23T09:39:36;100857.53;;;24.06;44.98
19096;BME280;9680;52.520;13.332;2023-05-23T09:42:03;100863.25;;;24.21;44.96
19096;BME280;9680;52.520;13.332;2023-05-23T09:44:30;100868.75;;;24.48;44.44
19096;BME280;9680;52.520;13.332;2023-05-23T09:46:57;100866.28;;;24.36;44.31
19096;BME280;9680;52.520;13.332;2023-05-23T09:49:26;100861.28;;;24.23;44.62
19096;BME280;9680;52.520;13.332;2023-05-23T09:51:56;100861.13;;;24.25;44.78
19096;BME280;9680;52.520;13.332;2023-05-23T09:54:23;100862.03;;;24.43;44.72
19096;BME280;9680;52.520;13.332;2023-05-23T09:56:51;100856.31;;;24.66;44.42
19096;BME280;9680;52.520;13.332;2023-05-23T09:59:21;100863.41;;;24.85;43.91
19096;BME280;9680;52.520;13.332;2023-05-23T10:01:50;100863.88;;;24.71;43.52
19096;BME280;9680;52.520;13.332;2023-05-23T10:04:20;100872.44;;;24.37;44.26
19096;BME280;9680;52.520;13.332;2023-05-23T10:06:53;100864.94;;;23.93;45.26
19096;BME280;9680;52.520;13.332;2023-05-23T10:09:23;100868.22;;;23.67;46.31
19096;BME280;9680;52.520;13.332;2023-05-23T10:12:35;100881.91;;;23.62;46.95
19096;BME280;9680;52.520;13.332;2023-05-23T10:15:06;100878.56;;;23.70;47.30
19096;BME280;9680;52.520;13.332;2023-05-23T10:17:38;100873.94;;;23.72;47.46
19096;BME280;9680;52.520;13.332;2023-05-23T10:20:10;100876.56;;;23.82;47.31
19096;BME280;9680;52.520;13.332;2023-05-23T10:22:42;100873.06;;;24.21;46.84
19096;BME280;9680;52.520;13.332;2023-05-23T10:25:09;100874.28;;;24.64;46.22
19096;BME280;9680;52.520;13.332;2023-05-23T10:27:36;100864.19;;;24.96;45.63
19096;BME280;9680;52.520;13.332;2023-05-23T10:30:05;100863.75;;;25.00;45.60
19096;BME280;9680;52.520;13.332;2023-05-23T10:32:33;100857.56;;;25.00;45.97
19096;BME280;9680;52.520;13.332;2023-05-23T10:35:07;100871.59;;;24.74;46.40
19096;BME280;9680;52.520;13.332;2023-05-23T10:37:41;100877.03;;;24.45;47.12
19096;BME280;9680;52.520;13.332;2023-05-23T10:40:16;100881.06;;;23.91;48.76
19096;BME280;9680;52.520;13.332;2023-05-23T10:42:53;100884.44;;;23.54;50.20
19096;BME280;9680;52.520;13.332;2023-05-23T10:45:22;100890.47;;;23.36;51.66
19096;BME280;9680;52.520;13.332;2023-05-23T10:47:50;100892.25;;;23.36;51.83
19096;BME280;9680;52.520;13.332;2023-05-23T10:50:30;100889.31;;;23.39;52.19
19096;BME280;9680;52.520;13.332;2023-05-23T10:53:00;100890.84;;;23.22;52.65
19096;BME280;9680;52.520;13.332;2023-05-23T10:55:31;100890.34;;;22.87;53.75
19096;BME280;9680;52.520;13.332;2023-05-23T10:58:13;100892.56;;;22.92;54.18
19096;BME280;9680;52.520;13.332;2023-05-23T11:00:50;100891.06;;;22.99;53.81
19096;BME280;9680;52.520;13.332;2023-05-23T11:03:17;100890.97;;;23.20;53.80
19096;BME280;9680;52.520;13.332;2023-05-23T11:05:46;100893.94;;;23.37;53.28
19096;BME280;9680;52.520;13.332;2023-05-23T11:08:18;100897.84;;;23.33;53.07
19096;BME280;9680;52.520;13.332;2023-05-23T11:10:53;100901.66;;;23.30;53.39
19096;BME280;9680;52.520;13.332;2023-05-23T11:13:21;100893.81;;;23.38;53.10
19096;BME280;9680;52.520;13.332;2023-05-23T11:18:33;100905.28;;;23.39;52.60
19096;BME280;9680;52.520;13.332;2023-05-23T11:21:02;100904.56;;;23.27;52.87
19096;BME280;9680;52.520;13.332;2023-05-23T11:23:40;100910.06;;;23.04;53.75
19096;BME280;9680;52.520;13.332;2023-05-23T11:26:27;100912.34;;;23.09;54.19
19096;BME280;9680;52.520;13.332;2023-05-23T11:28:55;100912.56;;;22.96;53.81
19096;BME280;9680;52.520;13.332;2023-05-23T11:31:22;100923.34;;;22.63;54.64
19096;BME280;9680;52.520;13.332;2023-05-23T11:33:49;100917.22;;;22.42;55.38
19096;BME280;9680;52.520;13.332;2023-05-23T11:36:16;100914.91;;;22.27;55.55
19096;BME280;9680;52.520;13.332;2023-05-23T11:38:45;100912.91;;;22.19;55.90
19096;BME280;9680;52.520;13.332;2023-05-23T11:41:11;100911.28;;;22.28;55.87
19096;BME280;9680;52.520;13.332;2023-05-23T11:43:48;100910.56;;;22.47;56.09
19096;BME280;9680;52.520;13.332;2023-05-23T11:46:16;100915.28;;;22.75;55.29
19096;BME280;9680;52.520;13.332;2023-05-23T11:48:44;100917.06;;;22.95;54.76
19096;BME280;9680;52.520;13.332;2023-05-23T11:51:11;100917.41;;;22.81;54.75
19096;BME280;9680;52.520;13.332;2023-05-23T11:53:38;100919.22;;;22.80;54.66
19096;BME280;9680;52.520;13.332;2023-05-23T11:56:06;100921.88;;;22.80;54.57
19096;BME280;9680;52.520;13.332;2023-05-23T11:58:34;100918.84;;;22.54;55.05
19096;BME280;9680;52.520;13.332;2023-05-23T12:01:03;100915.03;;;22.25;55.72
19096;BME280;9680;52.520;13.332;2023-05-23T12:03:31;100930.69;;;22.07;56.34
19096;BME280;9680;52.520;13.332;2023-05-23T12:05:58;100931.19;;;22.01;56.37
19096;BME280;9680;52.520;13.332;2023-05-23T12:08:26;100927.81;;;21.99;56.47
19096;BME280;9680;52.520;13.332;2023-05-23T12:10:56;100918.78;;;22.02;56.77
19096;BME280;9680;52.520;13.332;2023-05-23T12:13:27;100926.97;;;22.20;55.97
19096;BME280;9680;52.520;13.332;2023-05-23T12:15:55;100926.41;;;22.37;55.70
19096;BME280;9680;52.520;13.332;2023-05-23T12:18:23;100937.41;;;22.54;55.06
19096;BME280;9680;52.520;13.332;2023-05-23T12:20:50;100931.31;;;22.42;55.74
19096;BME280;9680;52.520;13.332;2023-05-23T12:23:18;100935.16;;;22.49;55.74
19096;BME280;9680;52.520;13.332;2023-05-23T12:25:49;100944.41;;;22.55;55.20
19096;BME280;9680;52.520;13.332;2023-05-23T12:28:16;100943.16;;;22.17;55.57
19096;BME280;9680;52.520;13.332;2023-05-23T12:30:44;100940.19;;;21.89;56.34
19096;BME280;9680;52.520;13.332;2023-05-23T12:33:12;100948.75;;;21.81;56.90
19096;BME280;9680;52.520;13.332;2023-05-23T12:35:42;100941.84;;;21.90;56.88
19096;BME280;9680;52.520;13.332;2023-05-23T12:38:14;100948.34;;;21.97;56.64
19096;BME280;9680;52.520;13.332;2023-05-23T12:40:42;100945.09;;;22.15;56.75
19096;BME280;9680;52.520;13.332;2023-05-23T12:43:09;100955.28;;;22.31;55.76
19096;BME280;9680;52.520;13.332;2023-05-23T12:45:37;100936.38;;;22.45;55.25
19096;BME280;9680;52.520;13.332;2023-05-23T12:48:05;100950.31;;;22.59;54.42
19096;BME280;9680;52.520;13.332;2023-05-23T12:50:33;100944.72;;;22.40;54.75
19096;BME280;9680;52.520;13.332;2023-05-23T12:52:59;100944.66;;;22.31;54.99
19096;BME280;9680;52.520;13.332;2023-05-23T12:55:26;100948.34;;;22.18;55.43
19096;BME280;9680;52.520;13.332;2023-05-23T12:57:53;100951.34;;;21.71;56.35
19096;BME280;9680;52.520;13.332;2023-05-23T13:00:21;100958.63;;;21.35;57.62
19096;BME280;9680;52.520;13.332;2023-05-23T13:02:48;100956.84;;;21.24;58.04
19096;BME280;9680;52.520;13.332;2023-05-23T13:05:16;100959.84;;;21.19;58.21
19096;BME280;9680;52.520;13.332;2023-05-23T13:07:43;100966.84;;;21.09;58.97